Terminal Aerodrome Forecast
Issued by NWS

Home | Current Version | Previous Version | Text Only | Print | Product List | Glossary On
Versions: 1 2 3 4 5 6 7 8 9 10 11 12 13 14 15 16
000
FTUS45 KTFX 290019 AAA
TAFCTB
TAF AMD
KCTB 290019Z 2900/2924 25022G30KT 2SM FU SCT040 BKN110
     FM290400 23012KT 3SM FU SCT040 BKN090
     FM291900 19021G29KT 5SM HZ BKN150=

USA.gov is the U.S. government's official web portal to all federal, state and local government web resources and services.